createdAt,value
2018-10-03T00:02:02.042Z,9.57
2018-10-03T00:04:31.072Z,9.62
2018-10-03T00:06:59.814Z,9.62
2018-10-03T00:09:28.861Z,9.67
2018-10-03T00:11:57.557Z,9.67
2018-10-03T00:14:26.183Z,9.72
2018-10-03T00:16:54.900Z,9.74
2018-10-03T00:19:23.461Z,9.78
2018-10-03T00:21:52.617Z,9.82
2018-10-03T00:24:21.760Z,9.85
2018-10-03T00:26:50.740Z,9.94
2018-10-03T00:29:19.469Z,10.00
2018-10-03T00:31:48.134Z,10.04
2018-10-03T00:34:16.730Z,10.03
2018-10-03T00:36:45.549Z,10.13
2018-10-03T00:39:14.189Z,10.12
2018-10-03T00:41:43.178Z,10.12
2018-10-03T00:44:11.789Z,10.11
2018-10-03T00:46:40.381Z,10.12
2018-10-03T00:49:09.550Z,10.16
2018-10-03T00:51:38.763Z,10.18
2018-10-03T00:54:07.962Z,10.20
2018-10-03T00:56:36.651Z,10.18
2018-10-03T00:59:05.334Z,10.17
2018-10-03T01:01:34.533Z,10.14
2018-10-03T01:04:03.350Z,10.08
2018-10-03T01:06:31.930Z,10.08
2018-10-03T01:09:00.552Z,10.01
2018-10-03T01:11:29.261Z,9.94
2018-10-03T01:13:57.985Z,9.97
2018-10-03T01:16:26.616Z,9.93
2018-10-03T01:18:55.218Z,9.94
2018-10-03T01:21:23.783Z,9.97
2018-10-03T01:23:52.634Z,9.94
2018-10-03T01:26:21.370Z,9.92
2018-10-03T01:28:50.774Z,9.83
2018-10-03T01:31:19.610Z,9.86
2018-10-03T01:33:48.455Z,9.95
2018-10-03T01:36:17.026Z,9.96
2018-10-03T01:38:45.651Z,9.96
2018-10-03T01:41:14.218Z,9.95
2018-10-03T01:43:43.446Z,9.97
2018-10-03T01:46:12.006Z,9.99
2018-10-03T01:48:41.005Z,9.94
2018-10-03T01:51:11.645Z,10.01
2018-10-03T01:53:40.522Z,9.99
2018-10-03T01:56:09.107Z,10.07
2018-10-03T01:58:38.284Z,10.07
2018-10-03T02:01:06.929Z,10.14
2018-10-03T02:03:35.531Z,10.16
2018-10-03T02:06:04.196Z,10.13
2018-10-03T02:08:33.882Z,10.16
2018-10-03T02:11:02.731Z,10.15
2018-10-03T02:13:31.450Z,10.14
2018-10-03T02:16:00.241Z,10.14
2018-10-03T02:18:29.084Z,10.15
2018-10-03T02:20:57.663Z,10.13
2018-10-03T02:23:26.269Z,10.18
2018-10-03T02:25:55.493Z,10.19
2018-10-03T02:28:24.611Z,10.17
2018-10-03T02:30:53.218Z,10.14
2018-10-03T02:33:21.980Z,10.20
2018-10-03T02:35:50.841Z,10.20
2018-10-03T02:38:19.737Z,10.16
2018-10-03T02:40:48.370Z,10.17
2018-10-03T02:43:16.966Z,10.20
2018-10-03T02:45:45.542Z,10.20
2018-10-03T02:48:14.117Z,10.19
2018-10-03T02:50:43.458Z,10.17
2018-10-03T02:53:12.323Z,10.18
2018-10-03T02:55:40.951Z,10.20
2018-10-03T02:58:09.602Z,10.25
2018-10-03T03:00:38.192Z,10.26
2018-10-03T03:03:06.797Z,10.24
2018-10-03T03:05:35.728Z,10.21
2018-10-03T03:08:04.391Z,10.25
2018-10-03T03:10:33.538Z,10.28
2018-10-03T03:13:03.574Z,10.29
2018-10-03T03:15:32.256Z,10.32
2018-10-03T03:18:01.152Z,10.39
2018-10-03T03:20:29.912Z,10.45
2018-10-03T03:22:58.447Z,10.39
2018-10-03T03:25:27.158Z,10.32
2018-10-03T03:27:55.742Z,10.25
2018-10-03T03:30:24.321Z,10.23
2018-10-03T03:32:53.032Z,10.20
2018-10-03T03:35:22.282Z,10.15
2018-10-03T03:37:51.354Z,10.17
2018-10-03T03:40:19.917Z,10.10
2018-10-03T03:42:48.478Z,10.06
2018-10-03T03:45:17.121Z,10.04
2018-10-03T03:47:45.812Z,10.06
2018-10-03T03:50:15.282Z,10.05
2018-10-03T03:52:43.997Z,10.06
2018-10-03T03:55:12.755Z,10.00
2018-10-03T03:57:41.391Z,10.02
2018-10-03T04:00:10.296Z,10.00
2018-10-03T04:02:39.041Z,10.05
2018-10-03T04:05:07.742Z,10.04
2018-10-03T04:07:36.349Z,10.05
2018-10-03T04:10:05.363Z,10.06
2018-10-03T04:12:34.477Z,10.03
2018-10-03T04:15:03.326Z,10.03
2018-10-03T04:17:31.875Z,9.99
2018-10-03T04:20:00.606Z,9.93
2018-10-03T04:22:29.176Z,9.85
2018-10-03T04:24:57.781Z,9.83
2018-10-03T04:27:26.466Z,9.75
2018-10-03T04:29:55.217Z,9.67
2018-10-03T04:32:24.241Z,9.61
2018-10-03T04:34:52.824Z,9.61
2018-10-03T04:37:21.410Z,9.63
2018-10-03T04:39:50.136Z,9.72
2018-10-03T04:42:19.389Z,9.75
2018-10-03T04:44:48.148Z,9.78
2018-10-03T04:47:16.971Z,9.87
2018-10-03T04:49:45.649Z,9.97
2018-10-03T04:52:14.694Z,10.09
2018-10-03T04:54:43.226Z,10.18
2018-10-03T04:57:11.993Z,10.23
2018-10-03T04:59:40.634Z,10.30
2018-10-03T05:02:09.502Z,10.36
2018-10-03T05:04:38.169Z,10.42
2018-10-03T05:07:07.574Z,10.41
2018-10-03T05:09:36.229Z,10.50
2018-10-03T05:12:06.214Z,10.57
2018-10-03T05:14:35.059Z,10.56
2018-10-03T05:17:03.762Z,10.59
2018-10-03T05:19:32.365Z,10.62
2018-10-03T05:22:01.096Z,10.68
2018-10-03T05:24:29.778Z,10.70
2018-10-03T05:26:58.934Z,10.74
2018-10-03T05:29:27.722Z,10.77
2018-10-03T05:31:56.414Z,10.87
2018-10-03T05:34:25.225Z,10.98
2018-10-03T05:36:53.893Z,11.03
2018-10-03T05:39:22.903Z,11.09
2018-10-03T05:41:52.101Z,11.20
2018-10-03T05:44:20.731Z,11.26
2018-10-03T05:46:49.273Z,11.27
2018-10-03T05:49:18.255Z,11.27
2018-10-03T05:51:47.202Z,11.29
2018-10-03T05:54:15.812Z,11.22
2018-10-03T05:56:44.361Z,11.17
2018-10-03T05:59:12.941Z,11.41
2018-10-03T06:01:41.610Z,12.16
2018-10-03T06:04:10.147Z,12.93
2018-10-03T06:06:39.443Z,13.89
2018-10-03T06:09:10.530Z,14.72
2018-10-03T06:11:39.374Z,15.51
2018-10-03T06:14:08.145Z,15.85
2018-10-03T06:16:37.360Z,16.30
2018-10-03T06:19:06.485Z,16.65
2018-10-03T06:21:36.127Z,16.57
2018-10-03T06:24:06.712Z,16.05
2018-10-03T06:26:35.607Z,15.21
2018-10-03T06:29:05.100Z,14.50
2018-10-03T06:31:33.726Z,13.84
2018-10-03T06:34:02.465Z,13.39
2018-10-03T06:36:31.027Z,13.05
2018-10-03T06:39:00.118Z,12.90
2018-10-03T06:41:28.879Z,12.79
2018-10-03T06:43:57.547Z,12.68
2018-10-03T06:46:26.199Z,12.62
2018-10-03T06:48:54.754Z,13.01
2018-10-03T06:51:23.489Z,13.33
2018-10-03T06:53:52.038Z,14.11
2018-10-03T06:56:20.570Z,14.92
2018-10-03T06:58:49.210Z,15.21
2018-10-03T07:01:18.507Z,15.10
2018-10-03T07:03:47.147Z,14.89
2018-10-03T07:06:15.672Z,14.89
2018-10-03T07:08:44.562Z,15.46
2018-10-03T07:11:13.186Z,15.51
2018-10-03T07:13:41.805Z,15.45
2018-10-03T07:16:10.432Z,15.46
2018-10-03T07:18:39.157Z,16.00
2018-10-03T07:21:07.852Z,17.20
2018-10-03T07:23:36.444Z,18.79
2018-10-03T07:26:05.393Z,20.21
2018-10-03T07:28:34.356Z,21.20
2018-10-03T07:31:03.018Z,21.45
2018-10-03T07:33:31.734Z,21.19
2018-10-03T07:36:00.703Z,21.10
2018-10-03T07:38:29.443Z,21.17
2018-10-03T07:40:58.396Z,21.45
2018-10-03T07:43:27.434Z,20.99
2018-10-03T07:45:56.486Z,19.85
2018-10-03T07:48:25.127Z,18.82
2018-10-03T07:50:54.086Z,17.75
2018-10-03T07:53:22.729Z,17.22
2018-10-03T07:55:51.722Z,16.96
2018-10-03T07:58:20.403Z,17.27
2018-10-03T08:00:49.246Z,17.14
2018-10-03T08:03:17.993Z,16.76
2018-10-03T08:05:46.715Z,16.39
2018-10-03T08:08:15.671Z,16.03
2018-10-03T08:10:44.428Z,15.81
2018-10-03T08:13:13.026Z,15.34
2018-10-03T08:15:41.698Z,14.99
2018-10-03T08:18:11.144Z,14.79
2018-10-03T08:20:40.063Z,14.68
2018-10-03T08:23:08.633Z,14.56
2018-10-03T08:25:37.174Z,14.60
2018-10-03T08:28:05.737Z,14.65
2018-10-03T08:30:34.354Z,14.76
2018-10-03T08:33:03.103Z,14.93
2018-10-03T08:35:31.901Z,15.16
2018-10-03T08:38:00.484Z,15.29
2018-10-03T08:40:29.198Z,15.33
2018-10-03T08:42:57.793Z,15.22
2018-10-03T08:45:26.321Z,15.20
2018-10-03T08:47:55.027Z,15.35
2018-10-03T08:50:23.720Z,15.53
2018-10-03T08:52:52.893Z,15.47
2018-10-03T08:55:21.576Z,15.55
2018-10-03T08:57:50.239Z,15.64
2018-10-03T09:03:27.762Z,15.47
2018-10-03T09:05:56.355Z,15.27
2018-10-03T09:08:24.958Z,15.12
2018-10-03T09:10:53.578Z,14.84
2018-10-03T09:13:22.305Z,14.65
2018-10-03T09:15:50.870Z,14.56
2018-10-03T09:18:19.471Z,14.58
2018-10-03T09:20:48.055Z,14.55
2018-10-03T09:23:16.612Z,14.58
2018-10-03T09:25:45.938Z,14.60
2018-10-03T09:28:14.628Z,14.61
2018-10-03T09:30:43.412Z,14.64
2018-10-03T09:33:12.062Z,14.58
2018-10-03T09:35:40.645Z,14.53
2018-10-03T09:38:09.204Z,14.57
2018-10-03T09:40:37.773Z,14.70
2018-10-03T09:43:06.853Z,14.89
2018-10-03T09:45:35.461Z,15.12
2018-10-03T09:48:04.148Z,15.33
2018-10-03T09:50:32.698Z,15.54
2018-10-03T09:53:01.269Z,15.53
2018-10-03T09:55:29.859Z,15.33
2018-10-03T09:57:59.685Z,15.09
2018-10-03T10:00:33.641Z,14.91
2018-10-03T10:03:02.341Z,14.79
2018-10-03T10:05:30.912Z,14.69
2018-10-03T10:08:10.054Z,14.61
2018-10-03T10:10:40.466Z,14.66
2018-10-03T10:13:09.195Z,14.64
2018-10-03T10:15:46.898Z,14.90
2018-10-03T10:18:15.627Z,15.29
2018-10-03T10:20:44.303Z,15.65
2018-10-03T10:23:12.990Z,15.91
2018-10-03T10:25:41.537Z,15.94
2018-10-03T10:28:10.572Z,15.37
2018-10-03T10:30:39.477Z,14.96
2018-10-03T10:33:08.061Z,14.84
2018-10-03T10:35:36.880Z,14.46
2018-10-03T10:38:05.544Z,14.14
2018-10-03T10:40:34.429Z,14.22
2018-10-03T10:43:03.275Z,14.35
2018-10-03T10:45:31.837Z,14.49
2018-10-03T10:48:00.430Z,14.64
2018-10-03T10:50:29.107Z,14.75
2018-10-03T10:52:57.818Z,14.80
2018-10-03T10:55:26.510Z,14.79
2018-10-03T10:57:55.061Z,14.68
2018-10-03T11:00:23.619Z,14.52
2018-10-03T11:02:52.205Z,14.46
2018-10-03T11:05:20.924Z,14.56
2018-10-03T11:07:49.865Z,14.71
2018-10-03T11:10:18.495Z,14.91
2018-10-03T11:12:47.124Z,15.10
2018-10-03T11:15:15.757Z,15.17
2018-10-03T11:17:44.340Z,15.20
2018-10-03T11:20:12.967Z,15.25
2018-10-03T11:22:41.731Z,15.30
2018-10-03T11:25:10.302Z,15.25
2018-10-03T11:27:38.941Z,15.21
2018-10-03T11:30:07.706Z,15.15
2018-10-03T11:32:36.462Z,14.97
2018-10-03T11:35:05.099Z,14.81
2018-10-03T11:37:33.668Z,14.72
2018-10-03T11:40:02.257Z,14.77
2018-10-03T11:42:30.909Z,14.79
2018-10-03T11:44:59.531Z,14.85
2018-10-03T11:47:28.173Z,15.02
2018-10-03T11:49:56.844Z,15.29
2018-10-03T11:52:25.392Z,15.47
2018-10-03T11:54:53.967Z,15.80
2018-10-03T11:57:22.603Z,16.28
2018-10-03T11:59:51.174Z,16.56
2018-10-03T12:02:19.842Z,16.64
2018-10-03T12:04:48.438Z,16.62
2018-10-03T12:07:17.056Z,16.61
2018-10-03T12:09:46.423Z,16.56
2018-10-03T12:12:14.983Z,16.51
2018-10-03T12:14:43.543Z,16.19
2018-10-03T12:17:12.097Z,15.88
2018-10-03T12:19:40.652Z,15.66
2018-10-03T12:22:09.310Z,15.52
2018-10-03T12:24:38.124Z,15.39
2018-10-03T12:27:06.979Z,15.31
2018-10-03T12:29:35.776Z,15.27
2018-10-03T12:32:04.350Z,15.23
2018-10-03T12:34:33.166Z,15.17
2018-10-03T12:37:01.709Z,15.01
2018-10-03T12:39:30.373Z,14.78
2018-10-03T12:41:59.140Z,14.59
2018-10-03T12:44:27.704Z,14.35
2018-10-03T12:46:56.263Z,14.26
2018-10-03T12:49:24.832Z,14.25
2018-10-03T12:51:53.404Z,14.39
2018-10-03T12:54:21.955Z,14.59
2018-10-03T12:56:50.577Z,14.93
2018-10-03T12:59:19.618Z,15.26
2018-10-03T13:01:48.390Z,15.61
2018-10-03T13:04:16.984Z,15.51
2018-10-03T13:06:45.722Z,14.95
2018-10-03T13:09:15.374Z,14.44
2018-10-03T13:11:44.403Z,14.10
2018-10-03T13:14:13.456Z,13.99
2018-10-03T13:16:42.574Z,13.92
2018-10-03T13:19:11.212Z,13.75
2018-10-03T13:21:40.272Z,13.64
2018-10-03T13:24:09.058Z,13.66
2018-10-03T13:26:37.670Z,13.56
2018-10-03T13:29:06.662Z,13.47
2018-10-03T13:31:35.198Z,13.26
2018-10-03T13:34:03.737Z,13.18
2018-10-03T13:36:32.429Z,13.13
2018-10-03T13:39:01.151Z,12.99
2018-10-03T13:41:29.777Z,12.88
2018-10-03T13:43:58.517Z,12.80
2018-10-03T13:46:27.085Z,12.69
2018-10-03T13:48:55.707Z,12.62
2018-10-03T13:51:24.303Z,12.61
2018-10-03T13:53:52.946Z,12.55
2018-10-03T13:56:21.566Z,12.53
2018-10-03T13:58:50.090Z,12.61
2018-10-03T14:01:18.675Z,12.73
2018-10-03T14:03:47.223Z,12.78
2018-10-03T14:06:15.779Z,12.71
2018-10-03T14:08:44.413Z,12.58
2018-10-03T14:11:13.713Z,12.36
2018-10-03T14:13:42.633Z,12.29
2018-10-03T14:16:11.577Z,12.28
2018-10-03T14:18:40.303Z,12.24
2018-10-03T14:21:09.476Z,12.24
2018-10-03T14:23:38.032Z,12.14
2018-10-03T14:26:06.639Z,12.17
2018-10-03T14:28:35.789Z,12.21
2018-10-03T14:31:04.713Z,12.31
2018-10-03T14:33:33.459Z,12.24
2018-10-03T14:36:02.167Z,12.16
2018-10-03T14:38:30.935Z,12.14
2018-10-03T14:40:59.555Z,12.15
2018-10-03T14:43:28.121Z,12.14
2018-10-03T14:45:56.661Z,12.13
2018-10-03T14:48:25.328Z,12.11
2018-10-03T14:50:54.434Z,12.03
2018-10-03T14:53:23.138Z,11.90
2018-10-03T14:55:51.817Z,11.80
2018-10-03T14:58:20.606Z,11.73
2018-10-03T15:00:49.390Z,11.69
2018-10-03T15:03:18.005Z,11.68
2018-10-03T15:05:46.569Z,11.67
2018-10-03T15:08:15.378Z,11.63
2018-10-03T15:10:44.179Z,11.62
2018-10-03T15:13:12.874Z,11.60
2018-10-03T15:15:41.520Z,11.56
2018-10-03T15:18:10.769Z,11.56
2018-10-03T15:20:39.421Z,11.59
2018-10-03T15:23:08.192Z,11.57
2018-10-03T15:25:36.871Z,11.62
2018-10-03T15:28:05.936Z,11.70
2018-10-03T15:30:34.705Z,11.77
2018-10-03T15:33:03.281Z,11.84
2018-10-03T15:35:31.883Z,11.84
2018-10-03T15:38:00.689Z,11.79
2018-10-03T15:40:29.288Z,11.67
2018-10-03T15:42:57.851Z,11.59
2018-10-03T15:45:26.591Z,11.61
2018-10-03T15:47:55.313Z,11.65
2018-10-03T15:50:23.927Z,11.56
2018-10-03T15:52:52.537Z,11.50
2018-10-03T15:55:21.098Z,11.42
2018-10-03T15:57:49.717Z,11.38
2018-10-03T16:00:18.322Z,11.26
2018-10-03T16:02:47.050Z,11.26
2018-10-03T16:05:15.945Z,11.24
2018-10-03T16:07:44.817Z,11.24
2018-10-03T16:10:13.441Z,11.20
2018-10-03T16:12:42.063Z,11.20
2018-10-03T16:15:10.632Z,11.17
2018-10-03T16:17:39.268Z,11.15
2018-10-03T16:20:08.103Z,11.15
2018-10-03T16:22:36.816Z,11.15
2018-10-03T16:25:05.530Z,11.07
2018-10-03T16:27:34.129Z,10.98
2018-10-03T16:30:02.996Z,10.88
2018-10-03T16:32:32.271Z,10.79
2018-10-03T16:35:01.011Z,10.74
2018-10-03T16:37:29.614Z,10.74
2018-10-03T16:39:58.305Z,10.66
2018-10-03T16:42:27.062Z,10.65
2018-10-03T16:44:56.590Z,10.67
2018-10-03T16:47:25.289Z,10.61
2018-10-03T16:49:54.007Z,10.54
2018-10-03T16:52:22.648Z,10.37
2018-10-03T16:54:51.338Z,10.26
2018-10-03T16:57:19.992Z,10.10
2018-10-03T16:59:48.772Z,10.04
2018-10-03T17:02:17.602Z,10.01
2018-10-03T17:04:46.225Z,9.94
2018-10-03T17:07:15.008Z,9.81
2018-10-03T17:09:43.651Z,9.77
2018-10-03T17:12:12.255Z,9.68
2018-10-03T17:14:40.974Z,9.62
2018-10-03T17:17:10.217Z,9.56
2018-10-03T17:19:39.230Z,9.47
2018-10-03T17:22:08.502Z,9.47
2018-10-03T17:24:38.001Z,9.41
2018-10-03T17:27:06.551Z,9.27
2018-10-03T17:29:35.145Z,9.21
2018-10-03T17:32:03.799Z,9.22
2018-10-03T17:34:32.381Z,9.07
2018-10-03T17:37:00.990Z,9.01
2018-10-03T17:39:29.725Z,8.92
2018-10-03T17:41:58.494Z,8.87
2018-10-03T17:44:27.095Z,8.87
2018-10-03T17:46:56.942Z,8.87
2018-10-03T17:49:25.845Z,8.81
2018-10-03T17:51:54.407Z,8.82
2018-10-03T17:54:22.997Z,8.80
2018-10-03T17:56:51.525Z,8.88
2018-10-03T17:59:20.177Z,8.94
2018-10-03T18:04:47.658Z,8.83
2018-10-03T18:07:16.291Z,8.79
2018-10-03T18:09:44.821Z,8.73
2018-10-03T18:12:13.371Z,8.60
2018-10-03T18:14:41.988Z,8.50
2018-10-03T18:17:10.718Z,8.44
2018-10-03T18:19:39.370Z,8.37
2018-10-03T18:22:08.003Z,8.32
2018-10-03T18:24:36.731Z,8.36
2018-10-03T18:27:05.294Z,8.40
2018-10-03T18:29:33.834Z,8.29
2018-10-03T18:32:02.858Z,8.19
2018-10-03T18:34:31.726Z,8.11
2018-10-03T18:37:00.611Z,8.10
2018-10-03T18:39:29.273Z,8.08
2018-10-03T18:41:57.828Z,8.04
2018-10-03T18:44:26.443Z,8.06
2018-10-03T18:46:55.027Z,8.08
2018-10-03T18:49:23.930Z,8.03
2018-10-03T18:51:52.677Z,7.99
2018-10-03T18:54:21.530Z,7.91
2018-10-03T18:56:50.194Z,7.95
2018-10-03T18:59:18.813Z,7.91
2018-10-03T19:01:47.417Z,7.92
2018-10-03T19:04:16.943Z,7.88
2018-10-03T19:06:45.512Z,7.83
2018-10-03T19:09:14.120Z,7.79
2018-10-03T19:11:42.895Z,7.78
2018-10-03T19:14:11.687Z,7.72
2018-10-03T19:16:40.309Z,7.70
2018-10-03T19:19:09.019Z,7.64
2018-10-03T19:21:37.618Z,7.62
2018-10-03T19:26:41.145Z,7.56
2018-10-03T19:29:09.875Z,7.45
2018-10-03T19:31:38.629Z,7.43
2018-10-03T19:34:07.236Z,7.44
2018-10-03T19:36:36.149Z,7.36
2018-10-03T19:39:05.510Z,7.25
2018-10-03T19:41:34.173Z,7.16
2018-10-03T19:44:02.934Z,7.17
2018-10-03T19:46:31.593Z,7.15
2018-10-03T19:49:00.195Z,7.16
2018-10-03T19:51:28.792Z,7.13
2018-10-03T19:53:57.563Z,7.08
2018-10-03T19:56:26.146Z,7.10
2018-10-03T19:58:54.810Z,7.19
2018-10-03T20:01:23.413Z,7.30
2018-10-03T20:03:52.375Z,7.26
2018-10-03T20:06:21.106Z,7.31
2018-10-03T20:08:49.798Z,7.26
2018-10-03T20:11:18.426Z,7.17
2018-10-03T20:13:47.038Z,7.14
2018-10-03T20:16:15.781Z,7.17
2018-10-03T20:18:44.642Z,7.15
2018-10-03T20:21:13.401Z,7.18
2018-10-03T20:23:42.247Z,7.12
2018-10-03T20:26:10.934Z,7.08
2018-10-03T20:28:39.538Z,7.05
2018-10-03T20:31:08.102Z,6.98
2018-10-03T20:33:36.707Z,6.83
2018-10-03T20:36:05.516Z,6.85
2018-10-03T20:38:34.326Z,6.88
2018-10-03T20:41:02.979Z,6.91
2018-10-03T20:43:31.626Z,6.77
2018-10-03T20:46:00.211Z,6.68
2018-10-03T20:48:28.771Z,6.68
2018-10-03T20:50:57.314Z,6.71
2018-10-03T20:53:25.900Z,6.76
2018-10-03T20:55:54.479Z,6.70
2018-10-03T20:58:23.058Z,6.55
2018-10-03T21:00:51.650Z,6.53
2018-10-03T21:03:20.214Z,6.57
2018-10-03T21:05:48.772Z,6.56
2018-10-03T21:08:17.330Z,6.52
2018-10-03T21:10:46.058Z,6.51
2018-10-03T21:13:15.443Z,6.51
2018-10-03T21:15:46.415Z,6.58
2018-10-03T21:18:15.089Z,6.63
2018-10-03T21:20:43.661Z,6.64
2018-10-03T21:23:13.360Z,6.62
2018-10-03T21:25:43.282Z,6.60
2018-10-03T21:28:12.410Z,6.61
2018-10-03T21:30:40.958Z,6.46
2018-10-03T21:33:09.577Z,6.42
2018-10-03T21:35:38.246Z,6.40
2018-10-03T21:38:07.220Z,6.32
2018-10-03T21:40:35.836Z,6.30
2018-10-03T21:43:04.412Z,6.34
2018-10-03T21:45:33.002Z,6.30
2018-10-03T21:48:01.581Z,6.35
2018-10-03T21:50:30.206Z,6.43
2018-10-03T21:52:58.785Z,6.53
2018-10-03T21:55:27.394Z,6.65
2018-10-03T21:57:56.146Z,6.80
2018-10-03T22:00:29.921Z,6.85
2018-10-03T22:02:58.536Z,6.75
2018-10-03T22:05:27.283Z,6.88
2018-10-03T22:07:55.980Z,6.89
2018-10-03T22:10:24.550Z,6.93
2018-10-03T22:12:53.160Z,6.92
2018-10-03T22:15:21.825Z,6.97
2018-10-03T22:17:50.465Z,7.06
2018-10-03T22:20:19.685Z,7.15
2018-10-03T22:22:48.454Z,7.18
2018-10-03T22:25:17.175Z,7.19
2018-10-03T22:27:45.799Z,7.28
2018-10-03T22:30:14.400Z,7.39
2018-10-03T22:32:42.973Z,7.45
2018-10-03T22:35:11.604Z,7.50
2018-10-03T22:37:40.251Z,7.40
2018-10-03T22:40:08.955Z,7.46
2018-10-03T22:42:38.629Z,7.43
2018-10-03T22:45:07.311Z,7.43
2018-10-03T22:47:36.817Z,7.27
2018-10-03T22:50:05.419Z,7.18
2018-10-03T22:52:34.053Z,7.13
2018-10-03T22:55:03.599Z,7.06
2018-10-03T22:57:32.394Z,7.07
2018-10-03T23:00:01.023Z,6.99
2018-10-03T23:02:30.046Z,6.90
2018-10-03T23:04:58.921Z,6.93
2018-10-03T23:07:28.215Z,7.11
2018-10-03T23:09:56.858Z,7.10
2018-10-03T23:12:25.625Z,6.96
2018-10-03T23:14:54.316Z,6.88
2018-10-03T23:17:23.110Z,6.80
2018-10-03T23:19:51.690Z,6.74
2018-10-03T23:22:20.495Z,6.66
2018-10-03T23:24:49.200Z,6.60
2018-10-03T23:27:17.830Z,6.56
2018-10-03T23:29:47.642Z,6.64
2018-10-03T23:32:17.482Z,6.73
2018-10-03T23:34:46.214Z,6.70
2018-10-03T23:37:14.848Z,6.78
2018-10-03T23:39:43.748Z,6.73
2018-10-03T23:42:12.409Z,6.71
2018-10-03T23:44:41.887Z,6.68
2018-10-03T23:47:11.106Z,6.71
2018-10-03T23:49:39.974Z,6.76
2018-10-03T23:52:08.750Z,6.77
2018-10-03T23:54:37.429Z,6.66
2018-10-03T23:57:06.158Z,6.63
2018-10-03T23:59:35.177Z,6.70
